Time;durP1;ratioP1;P1;durP2;ratioP2;P2;SDS_P1;SDS_P2;PMS_P1;PMS_P2;Temp;Humidity;BMP_temperature;BMP_pressure;BME280_temperature;BME280_humidity;BME280_pressure;Samples;Min_cycle;Max_cycle;Signal;HPM_P1;HPM_P2
2022/03/30 00:01:02;;;;;;;;;;;;;;;4.61;66.47;100187.94;4984255;28;1272;-96
2022/03/30 00:03:29;;;;;;;;;;;;;;;4.61;66.42;100190.59;4984572;28;2009;-96
2022/03/30 00:05:56;;;;;;;;;;;;;;;4.60;66.23;100193.47;4983807;28;1574;-96
2022/03/30 00:08:22;;;;;;;;;;;;;;;4.57;66.51;100202.69;4969774;28;1632;-96
2022/03/30 00:10:49;;;;;;;;;;;;;;;4.57;66.32;100193.84;4983973;28;1713;-96
2022/03/30 00:13:17;;;;;;;;;;;;;;;4.54;66.43;100201.22;4984830;28;1428;-96
2022/03/30 00:15:44;;;;;;;;;;;;;;;4.54;66.33;100211.06;4979104;28;1572;-96
2022/03/30 00:18:11;;;;;;;;;;;;;;;4.52;66.20;100208.56;4964570;28;1205;-96
2022/03/30 00:20:37;;;;;;;;;;;;;;;4.51;66.15;100211.44;4971136;28;2608;-96
2022/03/30 00:23:05;;;;;;;;;;;;;;;4.48;66.23;100212.63;4973326;28;2116;-96
2022/03/30 00:25:31;;;;;;;;;;;;;;;4.49;66.30;100213.47;4982294;28;1539;-96
2022/03/30 00:27:58;;;;;;;;;;;;;;;4.48;66.17;100217.97;4977988;28;1611;-96
2022/03/30 00:30:25;;;;;;;;;;;;;;;4.47;66.17;100212.81;4966377;28;1708;-96
2022/03/30 00:32:52;;;;;;;;;;;;;;;4.46;66.18;100208.50;4982788;28;2108;-96
2022/03/30 00:35:18;;;;;;;;;;;;;;;4.47;65.97;100208.31;4982411;28;1721;-96
2022/03/30 00:37:45;;;;;;;;;;;;;;;4.46;66.21;100209.31;4983907;28;1186;-96
2022/03/30 00:40:12;;;;;;;;;;;;;;;4.44;66.03;100207.84;4982211;28;1481;-96
2022/03/30 00:42:38;;;;;;;;;;;;;;;4.45;66.12;100202.34;4982286;28;1791;-96
2022/03/30 00:45:05;;;;;;;;;;;;;;;4.44;66.02;100205.19;4982724;28;1914;-96
2022/03/30 00:47:32;;;;;;;;;;;;;;;4.44;66.04;100207.84;4964025;28;1202;-96
2022/03/30 00:49:59;;;;;;;;;;;;;;;4.43;66.08;100207.03;4963751;28;1317;-96
2022/03/30 00:52:25;;;;;;;;;;;;;;;4.43;66.07;100203.53;4979678;28;1890;-95
2022/03/30 00:54:52;;;;;;;;;;;;;;;4.43;66.04;100204.38;4972254;28;1644;-96
2022/03/30 00:57:18;;;;;;;;;;;;;;;4.43;65.62;100209.69;4979605;28;1400;-96
2022/03/30 00:59:45;;;;;;;;;;;;;;;4.43;65.86;100206.22;4964948;28;1324;-96
2022/03/30 01:02:12;;;;;;;;;;;;;;;4.43;65.64;100214.22;4982653;28;1547;-96
2022/03/30 01:04:39;;;;;;;;;;;;;;;4.42;65.66;100204.56;4982383;28;1975;-96
2022/03/30 01:07:06;;;;;;;;;;;;;;;4.41;65.63;100203.75;4982991;28;1353;-96
2022/03/30 01:09:32;;;;;;;;;;;;;;;4.42;65.63;100209.91;4986125;28;1646;-96
2022/03/30 01:11:59;;;;;;;;;;;;;;;4.41;65.79;100203.75;4994145;28;1349;-95
2022/03/30 01:14:26;;;;;;;;;;;;;;;4.42;65.41;100207.25;4982255;28;1332;-96
2022/03/30 01:16:53;;;;;;;;;;;;;;;4.41;65.46;100210.91;4969753;28;1420;-96
2022/03/30 01:19:20;;;;;;;;;;;;;;;4.39;65.47;100205.78;4962651;28;1477;-96
2022/03/30 01:21:47;;;;;;;;;;;;;;;4.41;65.19;100211.75;4987029;28;1583;-96
2022/03/30 01:24:14;;;;;;;;;;;;;;;4.41;65.33;100216.22;4987556;28;1914;-96
2022/03/30 01:26:40;;;;;;;;;;;;;;;4.41;65.22;100213.56;4981460;28;1229;-96
2022/03/30 01:34:32;;;;;;;;;;;;;;;4.38;65.04;100214.75;4972364;28;1264;-96
2022/03/30 01:36:58;;;;;;;;;;;;;;;4.40;65.09;100227.91;4987972;28;1810;-96
2022/03/30 01:39:25;;;;;;;;;;;;;;;4.40;65.14;100226.06;4986789;28;1325;-95
2022/03/30 01:41:51;;;;;;;;;;;;;;;4.39;65.09;100218.28;4969076;28;2051;-96
2022/03/30 01:44:18;;;;;;;;;;;;;;;4.37;65.03;100223.78;4968618;28;1919;-96
2022/03/30 01:46:45;;;;;;;;;;;;;;;4.37;65.08;100222.97;4974183;28;1694;-96
2022/03/30 01:49:11;;;;;;;;;;;;;;;4.38;64.85;100224.59;4988593;28;1167;-96
2022/03/30 01:51:38;;;;;;;;;;;;;;;4.38;65.09;100227.28;4988160;28;1189;-96
2022/03/30 01:54:05;;;;;;;;;;;;;;;4.35;65.02;100220.47;4988261;28;1376;-96
2022/03/30 01:56:32;;;;;;;;;;;;;;;4.35;64.88;100224.97;4988209;28;1673;-96
2022/03/30 01:58:59;;;;;;;;;;;;;;;4.35;64.94;100219.66;4988414;28;1198;-96
2022/03/30 02:01:26;;;;;;;;;;;;;;;4.34;64.86;100221.50;4984224;28;1751;-96
2022/03/30 02:03:52;;;;;;;;;;;;;;;4.35;64.64;100217.81;4989132;28;1910;-96
2022/03/30 02:06:22;;;;;;;;;;;;;;;4.33;64.96;100223.34;4987897;28;1177;-96
2022/03/30 02:08:49;;;;;;;;;;;;;;;4.32;65.00;100216.38;4988599;28;1214;-96
2022/03/30 02:11:16;;;;;;;;;;;;;;;4.34;64.86;100218.81;4983659;28;1716;-96
2022/03/30 02:13:43;;;;;;;;;;;;;;;4.32;64.92;100226.19;5000550;28;1631;-96
2022/03/30 02:16:10;;;;;;;;;;;;;;;4.29;64.95;100222.06;4987423;28;1363;-96
2022/03/30 02:18:36;;;;;;;;;;;;;;;4.30;64.87;100222.91;4988215;28;1201;-96
2022/03/30 02:21:03;;;;;;;;;;;;;;;4.33;64.79;100214.53;4987439;28;1474;-96
2022/03/30 02:23:30;;;;;;;;;;;;;;;4.34;64.79;100213.50;4986693;28;1993;-96
2022/03/30 02:25:56;;;;;;;;;;;;;;;4.32;64.56;100212.84;4986323;28;1676;-96
2022/03/30 02:28:24;;;;;;;;;;;;;;;4.31;64.70;100209.38;4972225;28;1373;-96
2022/03/30 02:30:50;;;;;;;;;;;;;;;4.30;64.76;100213.06;4986561;28;1277;-96
2022/03/30 02:33:17;;;;;;;;;;;;;;;4.32;64.58;100219.03;4984346;28;1406;-96
2022/03/30 02:35:44;;;;;;;;;;;;;;;4.32;64.67;100216.38;4984130;28;1559;-96
2022/03/30 02:38:10;;;;;;;;;;;;;;;4.30;64.52;100217.56;4980852;28;1364;-96
2022/03/30 02:40:37;;;;;;;;;;;;;;;4.30;64.51;100222.91;4967699;28;1721;-96
2022/03/30 02:43:04;;;;;;;;;;;;;;;4.31;64.45;100221.88;4982787;28;1775;-96
2022/03/30 02:45:30;;;;;;;;;;;;;;;4.28;64.52;100217.72;4982264;28;1972;-96
2022/03/30 02:50:47;;;;;;;;;;;;;;;4.32;64.48;100219.03;4956482;28;4360;-96
2022/03/30 02:53:14;;;;;;;;;;;;;;;4.29;64.29;100216.75;4981764;28;2174;-96
2022/03/30 02:55:40;;;;;;;;;;;;;;;4.32;64.34;100221.69;4979955;28;1454;-96
2022/03/30 02:58:08;;;;;;;;;;;;;;;4.35;64.27;100223.13;4981430;28;1809;-96
2022/03/30 03:00:35;;;;;;;;;;;;;;;4.31;64.28;100220.03;4982906;28;1538;-96
2022/03/30 03:03:02;;;;;;;;;;;;;;;4.33;64.32;100225.19;4964233;28;1220;-96
2022/03/30 03:05:32;;;;;;;;;;;;;;;4.34;63.98;100226.81;4963702;28;1907;-96
2022/03/30 03:07:58;;;;;;;;;;;;;;;4.32;64.10;100221.69;4964069;28;1472;-96
2022/03/30 03:10:25;;;;;;;;;;;;;;;4.35;64.11;100223.13;4979190;28;2159;-96
2022/03/30 03:12:52;;;;;;;;;;;;;;;4.33;64.27;100226.00;4977586;28;1772;-96
2022/03/30 03:15:20;;;;;;;;;;;;;;;4.32;64.20;100229.69;4983020;28;1254;-96
2022/03/30 03:17:46;;;;;;;;;;;;;;;4.32;64.06;100223.50;4982988;28;1411;-96
2022/03/30 03:20:13;;;;;;;;;;;;;;;4.31;64.05;100227.19;4982250;28;1548;-96
2022/03/30 03:22:40;;;;;;;;;;;;;;;4.29;63.99;100226.56;4972151;28;1774;-95
2022/03/30 03:25:06;;;;;;;;;;;;;;;4.31;64.06;100216.53;4982397;28;1911;-96
2022/03/30 03:27:33;;;;;;;;;;;;;;;4.29;64.03;100224.75;4980061;28;1550;-96
2022/03/30 03:30:00;;;;;;;;;;;;;;;4.34;63.74;100226.81;4962546;28;1333;-96
2022/03/30 03:32:29;;;;;;;;;;;;;;;4.33;63.91;100226.00;4980747;28;1194;-96
2022/03/30 03:34:56;;;;;;;;;;;;;;;4.33;63.89;100230.53;4981725;28;1297;-96
2022/03/30 03:37:22;;;;;;;;;;;;;;;4.34;63.82;100237.50;4981671;28;1563;-96
2022/03/30 03:39:49;;;;;;;;;;;;;;;4.35;63.69;100240.97;4981707;28;1270;-96
2022/03/30 03:42:16;;;;;;;;;;;;;;;4.32;63.98;100235.03;4974015;28;1736;-96
2022/03/30 03:44:42;;;;;;;;;;;;;;;4.30;63.80;100237.03;4962945;28;1907;-96
2022/03/30 03:47:09;;;;;;;;;;;;;;;4.32;63.79;100237.69;4996907;28;1590;-96
2022/03/30 03:49:36;;;;;;;;;;;;;;;4.33;63.69;100243.84;4981520;28;1166;-96
2022/03/30 03:52:02;;;;;;;;;;;;;;;4.32;63.71;100239.50;4974363;28;1190;-96
2022/03/30 03:54:29;;;;;;;;;;;;;;;4.30;63.82;100231.72;4966690;28;2097;-95
2022/03/30 03:56:56;;;;;;;;;;;;;;;4.32;63.44;100232.38;4970119;28;1382;-96
2022/03/30 03:59:22;;;;;;;;;;;;;;;4.32;63.62;100234.19;4982024;28;1237;-96
2022/03/30 04:01:49;;;;;;;;;;;;;;;4.32;63.52;100234.19;4967922;28;1585;-96
2022/03/30 04:04:16;;;;;;;;;;;;;;;4.30;63.58;100233.56;4970587;28;1914;-96
2022/03/30 04:06:42;;;;;;;;;;;;;;;4.32;63.44;100234.19;4981207;28;1201;-96
2022/03/30 04:09:09;;;;;;;;;;;;;;;4.29;63.44;100227.41;4980979;28;1309;-96
2022/03/30 04:11:36;;;;;;;;;;;;;;;4.32;63.27;100237.69;4975068;28;1386;-95
2022/03/30 04:14:03;;;;;;;;;;;;;;;4.31;63.61;100232.53;4973103;28;1623;-96
2022/03/30 04:16:29;;;;;;;;;;;;;;;4.30;63.65;100233.56;4980989;28;1205;-96
2022/03/30 04:18:56;;;;;;;;;;;;;;;4.30;63.43;100236.22;4974792;28;1692;-96
2022/03/30 04:21:23;;;;;;;;;;;;;;;4.28;63.63;100233.72;4961005;28;1187;-96
2022/03/30 04:23:49;;;;;;;;;;;;;;;4.29;63.30;100235.41;4960862;28;1175;-96
2022/03/30 04:26:16;;;;;;;;;;;;;;;4.28;63.47;100241.72;4962203;28;1918;-96
2022/03/30 04:28:43;;;;;;;;;;;;;;;4.33;63.34;100235.84;4980162;28;1427;-96
2022/03/30 04:31:10;;;;;;;;;;;;;;;4.33;63.18;100236.66;4980158;28;1204;-96
2022/03/30 04:33:37;;;;;;;;;;;;;;;4.30;63.31;100239.72;4980175;28;1481;-96
2022/03/30 04:36:03;;;;;;;;;;;;;;;4.30;63.35;100236.22;4979442;28;1221;-96
2022/03/30 04:38:30;;;;;;;;;;;;;;;4.29;63.30;100234.56;4960403;28;1899;-95
2022/03/30 04:40:57;;;;;;;;;;;;;;;4.31;63.15;100236.03;4965228;28;1754;-96
2022/03/30 04:43:24;;;;;;;;;;;;;;;4.33;63.25;100233.19;4979695;28;1364;-96
2022/03/30 04:45:50;;;;;;;;;;;;;;;4.33;63.10;100238.53;4975877;28;1922;-96
2022/03/30 04:48:17;;;;;;;;;;;;;;;4.30;63.18;100234.38;4979624;28;1202;-96
2022/03/30 04:50:43;;;;;;;;;;;;;;;4.30;63.23;100245.03;4978785;28;1858;-96
2022/03/30 04:53:10;;;;;;;;;;;;;;;4.30;63.15;100244.22;4979819;28;1298;-96
2022/03/30 04:55:37;;;;;;;;;;;;;;;4.34;63.13;100242.81;4976563;28;1715;-96
2022/03/30 04:58:04;;;;;;;;;;;;;;;4.30;63.20;100245.03;4972708;28;1481;-96
2022/03/30 05:00:31;;;;;;;;;;;;;;;4.36;63.00;100248.81;4978537;28;1366;-96
2022/03/30 05:02:58;;;;;;;;;;;;;;;4.29;63.23;100248.72;4979249;28;1241;-96
2022/03/30 05:05:25;;;;;;;;;;;;;;;4.29;63.06;100251.41;4978698;28;1979;-96
2022/03/30 05:07:51;;;;;;;;;;;;;;;4.31;63.05;100251.19;4978600;28;1427;-96
2022/03/30 05:10:18;;;;;;;;;;;;;;;4.29;62.99;100251.41;4979248;28;1324;-96
2022/03/30 05:12:44;;;;;;;;;;;;;;;4.33;62.98;100243.84;4971512;28;1308;-96
2022/03/30 05:15:12;;;;;;;;;;;;;;;4.27;63.05;100248.09;4976108;28;1788;-95
2022/03/30 05:17:38;;;;;;;;;;;;;;;4.29;63.04;100254.06;4978126;28;1450;-96
2022/03/30 05:20:05;;;;;;;;;;;;;;;4.28;62.94;100255.06;4978452;28;1543;-95
2022/03/30 05:22:33;;;;;;;;;;;;;;;4.28;62.93;100259.56;4968754;28;5356;-96
2022/03/30 05:25:00;;;;;;;;;;;;;;;4.31;62.98;100256.53;4975981;28;1958;-96
2022/03/30 05:27:26;;;;;;;;;;;;;;;4.28;62.95;100255.06;4980209;28;4960;-96
2022/03/30 05:29:53;;;;;;;;;;;;;;;4.28;62.81;100259.56;4960499;28;1327;-95
2022/03/30 05:32:19;;;;;;;;;;;;;;;4.32;62.84;100261.69;4967090;28;1513;-96
2022/03/30 05:34:46;;;;;;;;;;;;;;;4.32;62.96;100263.50;4979541;28;1244;-95
2022/03/30 05:37:13;;;;;;;;;;;;;;;4.29;62.88;100259.41;4979162;28;1372;-96
2022/03/30 05:39:41;;;;;;;;;;;;;;;4.32;62.68;100260.84;4979285;28;1374;-96
2022/03/30 05:42:09;;;;;;;;;;;;;;;4.29;62.86;100255.88;4973486;28;1696;-96
2022/03/30 05:44:36;;;;;;;;;;;;;;;4.27;62.97;100253.41;4959739;28;1979;-96
2022/03/30 05:47:03;;;;;;;;;;;;;;;4.30;62.71;100258.38;4974248;28;1917;-95
2022/03/30 05:49:30;;;;;;;;;;;;;;;4.28;62.75;100254.25;4979269;28;1237;-96
2022/03/30 05:51:56;;;;;;;;;;;;;;;4.24;62.99;100251.13;4981956;28;2258;-96
2022/03/30 05:54:22;;;;;;;;;;;;;;;4.26;62.80;100254.41;4976718;28;1224;-96
2022/03/30 05:57:01;;;;;;;;;;;;;;;4.26;62.91;100254.41;4977148;28;1204;-95
2022/03/30 05:59:29;;;;;;;;;;;;;;;4.27;62.69;100250.75;4974846;28;1864;-95
2022/03/30 06:01:56;;;;;;;;;;;;;;;4.28;62.53;100248.91;4964223;28;1270;-96
2022/03/30 06:04:22;;;;;;;;;;;;;;;4.27;62.78;100252.59;4973566;28;1914;-95
2022/03/30 06:06:50;;;;;;;;;;;;;;;4.27;62.76;100252.59;4969455;28;1634;-96
2022/03/30 06:09:17;;;;;;;;;;;;;;;4.32;62.65;100250.16;4978203;28;1509;-96
2022/03/30 06:11:43;;;;;;;;;;;;;;;4.34;62.57;100248.16;4977415;28;1443;-95
2022/03/30 06:14:10;;;;;;;;;;;;;;;4.32;62.57;100251.03;4978291;28;1402;-96
2022/03/30 06:16:36;;;;;;;;;;;;;;;4.27;62.59;100263.25;4962139;28;2061;-96
2022/03/30 06:19:03;;;;;;;;;;;;;;;4.35;62.45;100259.66;4979921;28;1686;-96
2022/03/30 06:21:30;;;;;;;;;;;;;;;4.39;62.22;100256.44;4979859;28;1747;-96
2022/03/30 06:23:56;;;;;;;;;;;;;;;4.30;62.56;100255.72;4968282;28;1511;-96
2022/03/30 06:26:23;;;;;;;;;;;;;;;4.29;62.68;100263.88;4960672;29;1914;-95
2022/03/30 06:28:50;;;;;;;;;;;;;;;4.29;62.74;100259.41;4963331;28;2080;-96
2022/03/30 06:31:17;;;;;;;;;;;;;;;4.29;62.61;100264.72;4975883;28;2276;-95
2022/03/30 06:33:44;;;;;;;;;;;;;;;4.39;62.43;100255.63;4959137;28;1644;-96
2022/03/30 06:36:10;;;;;;;;;;;;;;;4.30;62.59;100260.22;4971300;28;1415;-96
2022/03/30 06:38:37;;;;;;;;;;;;;;;4.32;62.59;100264.34;4978455;28;1514;-96
2022/03/30 06:41:04;;;;;;;;;;;;;;;4.34;62.30;100261.50;4977725;28;1492;-96
2022/03/30 06:43:31;;;;;;;;;;;;;;;4.34;62.39;100272.16;4964086;28;1513;-96
2022/03/30 06:45:57;;;;;;;;;;;;;;;4.41;62.17;100274.91;4962911;28;1985;-95
2022/03/30 06:48:24;;;;;;;;;;;;;;;4.37;62.31;100269.13;4986915;28;2141;-96
2022/03/30 06:50:52;;;;;;;;;;;;;;;4.36;62.59;100269.31;4969378;28;1364;-95
2022/03/30 06:53:22;;;;;;;;;;;;;;;4.37;62.29;100266.44;4977915;28;1586;-96
2022/03/30 06:55:48;;;;;;;;;;;;;;;4.33;62.60;100267.84;4980138;28;1347;-96
2022/03/30 06:58:15;;;;;;;;;;;;;;;4.32;62.40;100272.34;4958686;29;1339;-96
2022/03/30 07:00:41;;;;;;;;;;;;;;;4.29;62.71;100270.06;4972898;28;1984;-96
2022/03/30 07:03:08;;;;;;;;;;;;;;;4.32;62.60;100267.03;4977555;28;1164;-96
2022/03/30 07:05:34;;;;;;;;;;;;;;;4.33;62.55;100271.34;4978220;28;1918;-96
2022/03/30 07:10:46;;;;;;;;;;;;;;;4.33;62.44;100270.50;4958099;28;1492;-95
2022/03/30 07:13:12;;;;;;;;;;;;;;;4.33;62.55;100279.34;4958287;29;1205;-96
2022/03/30 07:15:40;;;;;;;;;;;;;;;4.39;62.49;100276.94;4973512;28;1875;-95
2022/03/30 07:18:08;;;;;;;;;;;;;;;4.37;62.53;100281.63;4977683;28;1273;-96
2022/03/30 07:20:34;;;;;;;;;;;;;;;4.30;62.54;100273.56;4977479;28;1399;-96
2022/03/30 07:23:01;;;;;;;;;;;;;;;4.36;62.60;100286.13;4977899;28;1706;-96
2022/03/30 07:25:27;;;;;;;;;;;;;;;4.43;62.29;100278.22;4976912;28;1910;-96
2022/03/30 07:27:54;;;;;;;;;;;;;;;4.37;62.43;100281.63;4977740;28;1555;-96
2022/03/30 07:30:21;;;;;;;;;;;;;;;4.38;62.26;100288.59;4966968;28;2381;-96
2022/03/30 07:32:47;;;;;;;;;;;;;;;4.36;62.66;100283.47;4973769;28;1425;-96
2022/03/30 07:35:14;;;;;;;;;;;;;;;4.41;62.28;100277.56;4977955;28;1623;-96
2022/03/30 07:37:40;;;;;;;;;;;;;;;4.40;62.54;100275.91;4980314;28;1594;-96
2022/03/30 07:40:07;;;;;;;;;;;;;;;4.42;62.29;100282.72;4978404;28;1868;-96
2022/03/30 07:42:33;;;;;;;;;;;;;;;4.44;62.44;100279.84;4978201;28;1750;-96
2022/03/30 07:45:00;;;;;;;;;;;;;;;4.40;62.32;100275.91;4978593;28;1978;-96
2022/03/30 07:47:27;;;;;;;;;;;;;;;4.40;62.34;100282.06;4978562;28;1297;-96
2022/03/30 07:49:54;;;;;;;;;;;;;;;4.40;62.44;100287.41;4978365;28;1284;-96
2022/03/30 07:52:21;;;;;;;;;;;;;;;4.44;62.41;100283.38;4977842;28;1248;-96
2022/03/30 07:54:48;;;;;;;;;;;;;;;4.45;62.56;100282.34;4977316;28;1408;-96
2022/03/30 07:57:15;;;;;;;;;;;;;;;4.45;62.50;100278.88;4978114;28;1309;-96
2022/03/30 07:59:41;;;;;;;;;;;;;;;4.45;62.49;100270.88;4973308;28;2020;-96
2022/03/30 08:02:08;;;;;;;;;;;;;;;4.47;62.45;100277.66;4974849;28;1417;-96
2022/03/30 08:04:35;;;;;;;;;;;;;;;4.44;62.72;100275.38;4978549;28;1232;-96
2022/03/30 08:07:01;;;;;;;;;;;;;;;4.46;62.63;100261.84;4978148;28;1990;-96
2022/03/30 08:09:28;;;;;;;;;;;;;;;4.48;62.60;100263.31;4966954;28;1482;-96
2022/03/30 08:11:55;;;;;;;;;;;;;;;4.48;62.66;100263.31;4974496;28;1523;-96
2022/03/30 08:14:21;;;;;;;;;;;;;;;4.52;62.51;100264.56;4958897;29;1195;-96
2022/03/30 08:16:48;;;;;;;;;;;;;;;4.54;62.64;100259.91;4978956;28;1413;-96
2022/03/30 08:19:15;;;;;;;;;;;;;;;4.52;62.57;100258.41;4979038;28;1576;-96
2022/03/30 08:24:27;;;;;;;;;;;;;;;4.56;62.65;100267.72;4959906;29;1466;-96
2022/03/30 08:26:54;;;;;;;;;;;;;;;4.54;62.62;100257.22;4975933;28;1923;-96
2022/03/30 08:29:20;;;;;;;;;;;;;;;4.57;62.56;100260.53;4981319;28;1374;-96
2022/03/30 08:31:48;;;;;;;;;;;;;;;4.61;62.46;100272.47;4980703;28;1353;-96
2022/03/30 08:34:15;;;;;;;;;;;;;;;4.62;62.49;100266.97;4980487;28;1194;-96
2022/03/30 08:36:41;;;;;;;;;;;;;;;4.57;62.70;100256.03;4970740;28;2370;-96
2022/03/30 08:39:11;;;;;;;;;;;;;;;4.65;62.43;100266.59;4982038;28;1280;-96
2022/03/30 08:41:37;;;;;;;;;;;;;;;4.65;62.49;100263.09;4982785;28;1595;-96
2022/03/30 08:44:04;;;;;;;;;;;;;;;4.66;62.55;100259.41;4980825;28;1293;-96
2022/03/30 08:46:31;;;;;;;;;;;;;;;4.68;62.67;100260.06;4975598;28;1914;-96
2022/03/30 08:49:01;;;;;;;;;;;;;;;4.68;62.52;100265.41;4974043;28;1348;-96
2022/03/30 08:51:28;;;;;;;;;;;;;;;4.69;62.59;100262.53;4974709;28;1469;-96
2022/03/30 08:53:55;;;;;;;;;;;;;;;4.72;62.53;100254.13;4975039;28;1489;-96
2022/03/30 08:56:23;;;;;;;;;;;;;;;4.69;62.76;100259.03;4983059;28;1698;-96
2022/03/30 08:58:50;;;;;;;;;;;;;;;4.77;62.58;100257.06;4988156;28;948;-96
2022/03/30 09:01:25;;;;;;;;;;;;;;;4.80;62.62;100258.53;4988486;28;1503;-97
2022/03/30 09:03:53;;;;;;;;;;;;;;;4.85;62.38;100256.13;4990369;28;1308;-96
2022/03/30 09:06:22;;;;;;;;;;;;;;;4.80;62.57;100255.06;4991816;28;1967;-96
2022/03/30 09:08:55;;;;;;;;;;;;;;;4.77;62.78;100250.91;4992944;28;878;-96
2022/03/30 09:11:33;;;;;;;;;;;;;;;4.81;62.59;100243.34;4994350;28;1224;-96
2022/03/30 09:14:09;;;;;;;;;;;;;;;4.78;63.00;100244.56;4992865;28;1363;-96
2022/03/30 09:16:57;;;;;;;;;;;;;;;4.81;62.71;100241.50;5011329;28;1801;-96
2022/03/30 09:57:19;;;;;;;;;;;;;;;5.00;63.25;100213.38;4964988;29;633;-96
2022/03/30 10:00:12;;;;;;;;;;;;;;;5.04;63.17;100206.63;4964871;29;715;-96
2022/03/30 10:03:04;;;;;;;;;;;;;;;5.05;62.98;100202.94;4965083;29;653;-96
2022/03/30 10:05:56;;;;;;;;;;;;;;;5.01;63.34;100205.16;4964951;29;1879;-96
2022/03/30 10:11:21;;;;;;;;;;;;;;;5.09;63.13;100198.88;4995750;23;1871;-96
2022/03/30 18:46:51;;;;;;;;;;;;;;;7.39;66.54;100096.53;5009598;28;1871;-96
2022/03/30 20:25:18;;;;;;;;;;;;;;;6.83;67.06;100171.97;4999100;28;882;-96
2022/03/30 20:34:51;;;;;;;;;;;;;;;6.78;67.04;100177.94;4999469;28;644;-97
2022/03/30 20:44:04;;;;;;;;;;;;;;;6.71;67.07;100165.59;4998387;28;767;-96
2022/03/30 20:46:59;;;;;;;;;;;;;;;6.68;67.17;100160.66;4997947;28;1883;-96
2022/03/30 20:53:23;;;;;;;;;;;;;;;6.65;67.00;100167.22;4997832;28;636;-96
2022/03/30 21:02:05;;;;;;;;;;;;;;;6.62;67.12;100182.84;4995974;28;1407;-96
2022/03/30 21:04:33;;;;;;;;;;;;;;;6.59;66.82;100178.75;4975353;28;1257;-95
2022/03/30 21:07:12;;;;;;;;;;;;;;;6.56;66.70;100179.97;4975195;28;1888;-96
2022/03/30 21:16:16;;;;;;;;;;;;;;;6.51;66.87;100182.41;4971697;29;833;-96
2022/03/30 21:22:14;;;;;;;;;;;;;;;6.47;67.08;100180.34;4975244;29;617;-96
2022/03/30 21:25:09;;;;;;;;;;;;;;;6.46;67.08;100187.53;4975135;29;1174;-96
2022/03/30 21:27:39;;;;;;;;;;;;;;;6.45;67.02;100182.41;4973207;29;1903;-96
2022/03/30 21:30:15;;;;;;;;;;;;;;;6.43;66.73;100182.59;4974565;29;873;-96
2022/03/30 21:32:53;;;;;;;;;;;;;;;6.42;66.65;100178.28;4975240;29;946;-96
2022/03/30 21:38:30;;;;;;;;;;;;;;;6.39;66.89;100189.38;4973806;28;1154;-96
2022/03/30 21:41:10;;;;;;;;;;;;;;;6.37;66.58;100186.91;4963378;29;1547;-96
2022/03/30 21:44:06;;;;;;;;;;;;;;;6.34;66.53;100192.66;4954391;29;1031;-96
2022/03/30 21:46:50;;;;;;;;;;;;;;;6.33;66.67;100188.34;4955925;29;1887;-96
2022/03/30 21:49:21;;;;;;;;;;;;;;;6.32;66.67;100189.38;4956759;29;1079;-96
2022/03/30 21:52:03;;;;;;;;;;;;;;;6.31;66.51;100192.22;4959403;29;946;-96
2022/03/30 22:00:24;;;;;;;;;;;;;;;6.24;66.55;100197.56;4978609;29;1301;-96
2022/03/30 22:02:56;;;;;;;;;;;;;;;6.22;66.69;100188.91;4969233;28;1287;-96
2022/03/30 22:05:32;;;;;;;;;;;;;;;6.21;66.78;100189.13;4997814;28;898;-96
2022/03/30 22:08:01;;;;;;;;;;;;;;;6.20;66.47;100196.28;4981217;28;1989;-96
2022/03/30 22:10:34;;;;;;;;;;;;;;;6.17;66.47;100194.03;4996499;28;888;-96
2022/03/30 22:13:04;;;;;;;;;;;;;;;6.17;66.39;100196.69;4969473;28;1353;-96
2022/03/30 22:15:39;;;;;;;;;;;;;;;6.14;66.60;100192.56;4980009;28;1224;-96
2022/03/30 22:18:23;;;;;;;;;;;;;;;6.13;66.33;100190.94;4979961;28;1361;-96
2022/03/30 22:20:54;;;;;;;;;;;;;;;6.12;66.60;100196.50;4992701;28;948;-96
2022/03/30 22:23:28;;;;;;;;;;;;;;;6.10;66.44;100194.00;4980161;28;1500;-96
2022/03/30 22:26:06;;;;;;;;;;;;;;;6.09;66.42;100197.72;4979298;28;1258;-96
2022/03/30 22:28:36;;;;;;;;;;;;;;;6.06;66.42;100200.78;4978642;28;1360;-96
2022/03/30 22:35:42;;;;;;;;;;;;;;;6.05;66.26;100204.47;4978284;28;1781;-96
2022/03/30 22:36:47;;;;;;;;;;;;;;;6.03;66.21;100209.19;4960051;29;1272;-97
2022/03/30 22:39:19;;;;;;;;;;;;;;;6.01;66.13;100197.06;4978453;29;918;-96
2022/03/30 22:41:58;;;;;;;;;;;;;;;6.01;66.30;100205.06;4975118;29;1523;-96
2022/03/30 22:44:29;;;;;;;;;;;;;;;5.98;66.41;100208.97;4959793;29;1251;-96
2022/03/30 22:49:43;;;;;;;;;;;;;;;5.96;66.33;100211.00;4975405;28;1204;-96
2022/03/30 22:52:14;;;;;;;;;;;;;;;5.94;66.12;100213.03;4976983;29;1421;-96
2022/03/30 22:54:58;;;;;;;;;;;;;;;5.92;66.34;100215.06;4975175;28;1433;-96
2022/03/30 22:57:29;;;;;;;;;;;;;;;5.90;66.51;100211.75;4995761;28;1175;-96
2022/03/30 23:00:00;;;;;;;;;;;;;;;5.88;66.30;100214.66;4992738;28;1390;-96
2022/03/30 23:02:36;;;;;;;;;;;;;;;5.86;66.24;100216.69;4990529;28;1309;-96
2022/03/30 23:10:40;;;;;;;;;;;;;;;5.83;66.05;100216.25;4979672;28;1113;-96
2022/03/30 23:13:12;;;;;;;;;;;;;;;5.81;66.23;100213.75;4973385;28;1470;-96
2022/03/30 23:15:45;;;;;;;;;;;;;;;5.80;66.00;100216.66;4977596;28;1242;-96
2022/03/30 23:18:15;;;;;;;;;;;;;;;5.77;66.28;100211.69;4994442;28;1598;-96
2022/03/30 23:20:43;;;;;;;;;;;;;;;5.75;66.14;100213.72;4977726;28;1392;-96
2022/03/30 23:23:14;;;;;;;;;;;;;;;5.72;66.18;100217.63;4987107;28;977;-96
2022/03/30 23:25:49;;;;;;;;;;;;;;;5.71;66.04;100221.31;4992598;28;991;-96
2022/03/30 23:28:18;;;;;;;;;;;;;;;5.70;65.97;100220.47;4977127;28;1976;-96
2022/03/30 23:30:47;;;;;;;;;;;;;;;5.70;66.02;100225.00;4976689;28;1327;-96
2022/03/30 23:33:23;;;;;;;;;;;;;;;5.68;66.01;100219.84;4994064;28;1159;-96
2022/03/30 23:35:52;;;;;;;;;;;;;;;5.66;65.73;100218.41;4991418;28;1184;-96
2022/03/30 23:38:23;;;;;;;;;;;;;;;5.65;66.02;100219.44;4958660;28;1481;-96
2022/03/30 23:40:54;;;;;;;;;;;;;;;5.63;65.99;100224.97;4957043;29;1357;-96
2022/03/30 23:43:23;;;;;;;;;;;;;;;5.61;65.80;100218.97;4957711;29;1075;-96
2022/03/30 23:45:54;;;;;;;;;;;;;;;5.60;65.72;100219.19;4960864;28;1238;-96
2022/03/30 23:48:21;;;;;;;;;;;;;;;5.57;65.86;100217.72;4993062;28;1895;-96
2022/03/30 23:50:48;;;;;;;;;;;;;;;5.56;65.77;100223.25;4976167;28;1322;-96
2022/03/30 23:53:16;;;;;;;;;;;;;;;5.55;65.93;100219.75;4992670;28;996;-96
2022/03/30 23:55:43;;;;;;;;;;;;;;;5.54;65.90;100225.31;4993637;28;881;-96
2022/03/30 23:58:11;;;;;;;;;;;;;;;5.51;65.74;100231.88;4976142;28;1471;-96
